createdAt,value
2019-02-28T06:26:20.433Z,26.45
2019-02-28T06:28:52.432Z,25.30
2019-02-28T06:31:21.993Z,22.50
2019-02-28T06:33:52.018Z,26.10
2019-02-28T06:36:25.729Z,25.77
2019-02-28T06:38:54.539Z,27.13
2019-02-28T06:41:25.041Z,32.67
2019-02-28T06:43:56.641Z,27.47
2019-02-28T06:46:26.077Z,28.33
2019-02-28T06:49:01.136Z,26.73
2019-02-28T06:51:28.440Z,26.53
2019-02-28T06:53:57.797Z,25.13
2019-02-28T06:56:27.154Z,26.03
2019-02-28T06:58:57.338Z,23.40
2019-02-28T07:01:29.536Z,27.37
2019-02-28T07:03:58.750Z,27.27
2019-02-28T07:06:28.323Z,28.37
2019-02-28T07:09:02.157Z,26.53
2019-02-28T07:11:29.660Z,28.47
2019-02-28T07:13:59.105Z,27.80
2019-02-28T07:16:30.686Z,27.70
2019-02-28T07:19:01.616Z,27.10
2019-02-28T07:21:31.604Z,28.17
2019-02-28T07:24:03.681Z,28.93
2019-02-28T07:26:33.803Z,29.13
2019-02-28T07:29:04.076Z,31.73
2019-02-28T07:31:33.256Z,31.20
2019-02-28T07:34:03.144Z,29.50
2019-02-28T07:36:34.036Z,23.97
2019-02-28T07:39:05.245Z,27.87
2019-02-28T07:41:36.066Z,29.87
2019-02-28T07:44:07.111Z,29.70
2019-02-28T07:46:38.778Z,29.17
2019-02-28T07:49:09.616Z,32.13
2019-02-28T07:51:39.349Z,27.90
2019-02-28T07:54:12.681Z,30.80
2019-02-28T07:56:43.147Z,28.40
2019-02-28T07:59:12.513Z,28.97
2019-02-28T08:01:42.014Z,28.70
2019-02-28T08:04:12.604Z,25.83
2019-02-28T08:06:42.460Z,28.77
2019-02-28T08:09:22.073Z,30.23
2019-02-28T08:11:55.717Z,34.70
2019-02-28T08:14:24.112Z,32.27
2019-02-28T08:16:56.073Z,34.43
2019-02-28T08:19:27.256Z,37.50
2019-02-28T08:21:58.828Z,31.17
2019-02-28T08:24:28.023Z,38.77
2019-02-28T08:26:58.100Z,33.70
2019-02-28T08:29:28.383Z,38.70
2019-02-28T08:31:58.140Z,37.70
2019-02-28T08:34:28.559Z,36.07
2019-02-28T08:36:58.436Z,41.87
2019-02-28T08:39:28.151Z,42.00
2019-02-28T08:42:03.466Z,38.37
2019-02-28T08:44:30.611Z,39.07
2019-02-28T08:47:00.374Z,43.80
2019-02-28T08:49:30.556Z,55.03
2019-02-28T08:52:02.483Z,38.00
2019-02-28T08:54:33.543Z,40.43
2019-02-28T08:57:03.559Z,40.17
2019-02-28T08:59:33.068Z,46.73
2019-02-28T09:02:03.638Z,46.03
2019-02-28T09:04:41.042Z,44.00
2019-02-28T09:07:05.051Z,48.00
2019-02-28T09:09:37.339Z,44.93
2019-02-28T09:12:08.012Z,45.97
2019-02-28T09:14:38.564Z,49.53
2019-02-28T09:17:08.368Z,51.30
2019-02-28T09:19:38.555Z,50.67
2019-02-28T09:22:08.543Z,48.63
2019-02-28T09:24:38.535Z,51.30
2019-02-28T09:27:08.813Z,53.70
2019-02-28T09:29:38.302Z,50.13
2019-02-28T09:32:10.194Z,48.70
2019-02-28T09:34:41.247Z,49.10
2019-02-28T09:37:11.842Z,50.97
2019-02-28T09:39:41.801Z,48.17
2019-02-28T09:42:15.077Z,44.37
2019-02-28T09:44:44.445Z,44.40
2019-02-28T09:47:14.655Z,47.60
2019-02-28T09:49:47.132Z,48.20
2019-02-28T09:52:17.012Z,46.63
2019-02-28T09:54:47.039Z,47.40
2019-02-28T09:57:18.961Z,42.90
2019-02-28T09:59:48.654Z,48.97
2019-02-28T10:02:18.232Z,51.53
2019-02-28T10:04:48.122Z,46.37
2019-02-28T10:07:17.786Z,40.77
2019-02-28T10:09:49.292Z,42.57
2019-02-28T10:12:19.743Z,43.77
2019-02-28T10:14:51.981Z,40.83
2019-02-28T10:17:22.736Z,40.53
2019-02-28T10:19:52.361Z,41.13
2019-02-28T10:22:23.292Z,41.50
2019-02-28T10:24:53.271Z,39.97
2019-02-28T10:27:26.883Z,40.07
2019-02-28T10:29:55.176Z,41.90
2019-02-28T10:32:25.340Z,36.70
2019-02-28T10:34:58.324Z,40.20
2019-02-28T10:37:27.437Z,35.57
2019-02-28T10:39:57.863Z,41.07
2019-02-28T10:42:29.199Z,45.20
2019-02-28T10:44:58.819Z,42.50
2019-02-28T10:47:30.030Z,38.87
2019-02-28T10:50:00.416Z,45.60
2019-02-28T10:52:30.789Z,48.33
2019-02-28T10:55:00.261Z,41.53
2019-02-28T10:57:30.362Z,40.77
2019-02-28T11:00:01.701Z,43.70
2019-02-28T11:02:31.078Z,38.97
2019-02-28T11:05:00.727Z,46.10
2019-02-28T11:07:31.170Z,47.20
2019-02-28T11:10:02.276Z,40.43
2019-02-28T11:12:32.019Z,43.93
2019-02-28T11:15:02.270Z,42.97
2019-02-28T11:17:34.173Z,43.77
2019-02-28T11:20:04.702Z,47.07
2019-02-28T11:22:36.539Z,48.53
2019-02-28T11:25:11.137Z,46.33
2019-02-28T11:27:42.564Z,48.17
2019-02-28T11:30:21.651Z,42.20
2019-02-28T11:32:52.242Z,49.20
2019-02-28T11:35:23.183Z,48.13
2019-02-28T11:37:55.360Z,47.27
2019-02-28T11:40:27.447Z,51.07
2019-02-28T11:42:59.411Z,49.30
2019-02-28T11:45:38.630Z,48.63
2019-02-28T11:48:12.730Z,46.83
2019-02-28T11:50:44.927Z,49.47
2019-02-28T11:53:18.969Z,43.23
2019-02-28T11:55:53.318Z,51.63
2019-02-28T11:58:22.551Z,49.30
2019-02-28T12:00:52.230Z,48.43
2019-02-28T12:03:22.385Z,49.63
2019-02-28T12:05:52.869Z,48.30
2019-02-28T12:08:23.894Z,47.07
2019-02-28T12:10:53.270Z,55.77
2019-02-28T12:13:23.511Z,51.63
2019-02-28T12:15:53.723Z,50.57
2019-02-28T12:18:25.983Z,44.67
2019-02-28T12:20:55.392Z,47.47
2019-02-28T12:23:25.787Z,47.50
2019-02-28T12:25:57.353Z,44.77
2019-02-28T12:28:27.743Z,55.70
2019-02-28T12:30:57.266Z,49.90
2019-02-28T12:33:28.187Z,46.87
2019-02-28T12:35:58.395Z,47.17
2019-02-28T12:38:29.178Z,53.63
2019-02-28T12:40:59.057Z,50.80
2019-02-28T12:43:31.305Z,44.17
2019-02-28T12:46:01.444Z,48.07
2019-02-28T12:48:31.274Z,46.43
2019-02-28T12:51:02.358Z,50.10
2019-02-28T12:53:32.626Z,44.40
2019-02-28T12:56:02.734Z,48.50
2019-02-28T12:58:38.703Z,50.07
2019-02-28T13:01:08.451Z,50.10
2019-02-28T13:03:38.012Z,47.30
2019-02-28T13:06:07.742Z,44.63
2019-02-28T13:08:38.695Z,47.80
2019-02-28T13:11:08.318Z,49.23
2019-02-28T13:13:38.525Z,48.13
2019-02-28T13:16:08.709Z,47.80
2019-02-28T13:18:39.564Z,46.67
2019-02-28T13:21:11.655Z,51.07
2019-02-28T13:23:41.433Z,49.87
2019-02-28T13:26:11.651Z,45.73
2019-02-28T13:28:41.568Z,53.93
2019-02-28T13:31:13.511Z,54.90
2019-02-28T13:33:48.602Z,50.33
2019-02-28T13:36:18.370Z,52.97
2019-02-28T13:38:49.517Z,52.07
2019-02-28T13:41:22.103Z,47.90
2019-02-28T13:43:54.697Z,48.93
2019-02-28T13:46:24.257Z,46.57
2019-02-28T13:48:54.345Z,48.80
2019-02-28T13:51:24.194Z,49.00
2019-02-28T13:53:55.702Z,56.03
2019-02-28T13:56:25.223Z,58.50
2019-02-28T13:58:57.298Z,50.73
2019-02-28T14:01:30.576Z,61.47
2019-02-28T14:04:00.272Z,56.67
2019-02-28T14:06:30.323Z,56.90
2019-02-28T14:09:00.723Z,59.13
2019-02-28T14:11:31.265Z,60.47
2019-02-28T14:14:00.894Z,54.43
2019-02-28T14:16:30.961Z,77.10
2019-02-28T14:19:00.985Z,60.67
2019-02-28T14:21:34.383Z,63.23
2019-02-28T14:24:03.444Z,59.60
2019-02-28T14:26:42.596Z,62.67
2019-02-28T14:29:10.606Z,63.73
2019-02-28T14:31:39.279Z,51.87
2019-02-28T14:34:08.695Z,59.27
2019-02-28T14:36:38.212Z,53.10
2019-02-28T14:39:09.803Z,64.17
2019-02-28T14:41:39.209Z,61.73
2019-02-28T14:44:10.034Z,65.47
2019-02-28T14:46:39.812Z,60.83
2019-02-28T14:49:12.542Z,60.97
2019-02-28T14:51:41.123Z,58.40
2019-02-28T14:54:11.105Z,62.50
2019-02-28T14:56:42.342Z,67.60
2019-02-28T14:59:12.497Z,68.17
2019-02-28T15:01:42.338Z,82.73
2019-02-28T15:04:12.550Z,67.27
2019-02-28T15:06:42.188Z,72.07
2019-02-28T15:09:17.530Z,79.27
2019-02-28T15:11:48.190Z,72.17
2019-02-28T15:14:18.698Z,70.70
2019-02-28T15:16:48.433Z,67.00
2019-02-28T15:19:21.478Z,81.07
2019-02-28T15:21:49.756Z,75.57
2019-02-28T15:30:16.534Z,73.90
2019-02-28T15:32:47.022Z,85.53
2019-02-28T15:35:19.833Z,79.87
2019-02-28T15:37:50.441Z,80.20
2019-02-28T15:40:34.797Z,81.37
2019-02-28T15:43:04.915Z,80.27
2019-02-28T15:45:36.209Z,81.90
2019-02-28T15:48:06.861Z,76.93
2019-02-28T15:50:36.218Z,81.40
2019-02-28T15:53:07.799Z,81.93
2019-02-28T15:55:38.136Z,87.33
2019-02-28T15:58:10.116Z,80.70
